Stapleton, Alabama
Current Conditions -  °F | °C
As of 3:53 PM on Monday 22 Dec 2014 (Local Time) from KBFM Reporting Station
Broken Clouds Broken Clouds  
Wind Chill: 67°   Ceiling: 1600
Heat Index: 67°   Visibility: 9mi
Dew Point: 64°   Wind: 8mph
Humidity: 90%   Direction: 160°SSE
Pressure: 29.77"   Gusts: NA
Location:  30.74°N, 87.79°W
Report Text: KBFM 222153Z 16007KT 9SM BKN016 BKN024 BKN034 19/18 A2977 RMK AO2 SLP081 T01940178
Loading
Personal Weather Stations






























Interactive Weather Map New forecast layout! Learn more

10-Day Weather Forecast

Advertisements
Track Severe Weather on mobile